YM Enlightenment — D5HJ2 — position and weather

sailwx.info

Track history (hours):
 
Tides and Currents Weather Stations Pressure Air Temp Water Temp Dewpoint Dewpoint Depression Visibility Wind Speed Wind Dir Waves Ship Positions

YM Enlightenment

Last reported at 2018-Feb-11 14:25 UTC. Time now 2018-Feb-19 21:46 UTC.
Position N 50°02' W 003°42'.
Warning: this ship's position is 8 days out of date.

Length 259 m; draft 12.2 m.

Type: Ship (hazmat cat A). MMSI: 636016703.

Date/timePositionNaut miles runAvg speedWind from/ knotsBaromVisibWave heightAir tempDewpointWater temp
2018-Feb-11 14:25N 50°02' W 003°42'715.9
2018-Feb-11 14:00N 50°06' W 003°34'918.2
2018-Feb-11 13:31N 50°15' W 003°30'917.6
2018-Feb-11 13:00N 50°23' W 003°26'4 8.1
2018-Feb-11 12:30N 50°25' W 003°21'918.2
2018-Feb-11 12:00N 50°26' W 003°06'918.4
2018-Feb-11 11:30N 50°26' W 002°52'918.8
2018-Feb-11 11:00N 50°27' W 002°37'1019.3
2018-Feb-11 10:30N 50°27' W 002°22'1719.1
2018-Feb-11 09:37N 50°28' W 001°55'218.9
2018-Feb-11 09:30N 50°28' W 001°52'1018.7
2018-Feb-11 08:58N 50°28' W 001°36'2517.9
2018-Feb-11 07:33N 50°30' W 000°56'417.4
2018-Feb-11 07:20N 50°30' W 000°50'2016.6
2018-Feb-11 06:06N 50°30' W 000°18'316.2
2018-Feb-11 05:56N 50°30' W 000°14'716.2
2018-Feb-11 05:30N 50°31' W 000°03'816.1
2018-Feb-11 05:00N 50°32' E 000°09'815.8
2018-Feb-11 04:30N 50°32' E 000°22'816.1
2018-Feb-11 04:00N 50°35' E 000°34'816.8
2018-Feb-11 03:30N 50°40' E 000°44'816.9
2018-Feb-11 03:00N 50°45' E 000°55'916.9
2018-Feb-11 02:30N 50°50' E 001°05'816.8
2018-Feb-11 02:00N 50°57' E 001°14'816.6
2018-Feb-11 01:30N 51°03' E 001°23'816.1
2018-Feb-11 01:00N 51°07' E 001°33'815.6
2018-Feb-11 00:30N 51°14' E 001°40'815.6
2018-Feb-11 00:00N 51°22' E 001°43'714.6
2018-Feb-10 23:30N 51°29' E 001°42'4 7.7
2018-Feb-10 23:00N 51°30' E 001°36'3 5.7
2018-Feb-10 22:30N 51°33' E 001°37'4 8.2
2018-Feb-10 22:00N 51°36' E 001°40'4 8.4
2018-Feb-10 21:30N 51°40' E 001°42'510.9
2018-Feb-10 21:01N 51°46' E 001°41'510.3
2018-Feb-10 20:31N 51°47' E 001°33'917.9
2018-Feb-10 20:01N 51°40' E 001°25'1016.9
2018-Feb-10 19:23N 51°34' E 001°11'616.3
2018-Feb-10 19:00N 51°30' E 001°02'814.9
2018-Feb-10 18:30N 51°29' E 000°50'13 1.9
2018-Feb-10 11:50N 51°30' E 000°30'0 0.0
2018-Feb-10 11:28N 51°30' E 000°30'0 0.0
2018-Feb-10 11:00N 51°30' E 000°30'0 0.0
2018-Feb-10 10:30N 51°30' E 000°30'0 0.0
2018-Feb-10 10:00N 51°30' E 000°30'0 0.0
2018-Feb-10 09:31N 51°30' E 000°30'0 0.0
2018-Feb-10 09:01N 51°30' E 000°30'0 0.0
2018-Feb-10 08:30N 51°30' E 000°30'0 0.0
2018-Feb-10 08:01N 51°30' E 000°30'0 0.0
2018-Feb-10 07:30N 51°30' E 000°30'0 0.0
2018-Feb-10 07:01N 51°30' E 000°30'0 0.0
2018-Feb-10 06:30N 51°30' E 000°30'0 0.0
2018-Feb-10 06:01N 51°30' E 000°30'0 0.0
2018-Feb-10 05:31N 51°30' E 000°30'0 0.0
2018-Feb-10 05:00N 51°30' E 000°30'0 0.0
2018-Feb-10 04:31N 51°30' E 000°30'0 0.0
2018-Feb-10 04:01N 51°30' E 000°30'0 0.0
2018-Feb-10 03:31N 51°30' E 000°30'0 0.2
2018-Feb-10 03:01N 51°30' E 000°30'1 1.3
2018-Feb-10 02:31N 51°30' E 000°31'4 8.1
2018-Feb-10 02:01N 51°30' E 000°38'713.0
2018-Feb-10 01:30N 51°29' E 000°48'815.5
2018-Feb-10 01:00N 51°30' E 001°01'917.4
2018-Feb-10 00:30N 51°34' E 001°13'917.8
2018-Feb-10 00:00N 51°39' E 001°24'918.0
2018-Feb-09 23:30N 51°47' E 001°33'713.9
2018-Feb-09 23:01N 51°51' E 001°42'1 4.6
2018-Feb-09 22:46N 51°51' E 001°44'1 5.1
2018-Feb-09 22:31N 51°51' E 001°46'2 4.9
2018-Feb-09 22:01N 51°49' E 001°48'4 8.4
2018-Feb-09 21:31N 51°45' E 001°49'13 8.4
2018-Feb-09 20:00N 51°33' E 001°53'4 8.5
2018-Feb-09 19:31N 51°29' E 001°56'9 9.3
2018-Feb-09 18:31N 51°23' E 002°08'4812.0
2018-Feb-09 14:30N 51°25' E 003°25'713.8
2018-Feb-09 14:00N 51°26' E 003°36'5 9.9
2018-Feb-09 13:31N 51°23' E 003°43'2110.6
2018-Feb-09 11:30N 51°21' E 004°16'0 0.0
2018-Feb-09 10:00N 51°21' E 004°16'0 0.0
2018-Feb-09 05:00N 51°21' E 004°16'0 0.0
2018-Feb-09 01:30N 51°21' E 004°16'0 0.0
2018-Feb-08 23:30N 51°21' E 004°16'0 0.0
2018-Feb-08 22:30N 51°21' E 004°16'0 0.0
2018-Feb-08 22:00N 51°21' E 004°16'0 0.0
2018-Feb-08 17:30N 51°21' E 004°16'0 0.0
2018-Feb-08 14:00N 51°21' E 004°16'0 0.0
2018-Feb-08 13:00N 51°21' E 004°16'0 0.0
2018-Feb-08 12:00N 51°21' E 004°16'2 1.4
2018-Feb-08 10:30N 51°22' E 004°13'4 7.8
2018-Feb-08 10:00N 51°22' E 004°07'611.8
2018-Feb-08 09:30N 51°26' E 004°00'3712.4
2018-Feb-08 06:30N 51°25' E 003°00'11414.6
2018-Feb-07 22:43N 53°09' E 004°19'414.9
2018-Feb-07 22:28N 53°11' E 004°23'1417.0
2018-Feb-07 21:40N 53°23' E 004°34'315.3
2018-Feb-07 21:27N 53°26' E 004°37'14011.7
2018-Feb-07 09:29N 53°35' E 008°32'0 0.0
2018-Feb-07 08:59N 53°35' E 008°32'0 0.0
2018-Feb-07 08:29N 53°35' E 008°32'0 0.0
2018-Feb-07 07:59N 53°35' E 008°32'0 0.0
2018-Feb-07 07:29N 53°35' E 008°32'0 0.0
2018-Feb-07 07:00N 53°35' E 008°32'0 0.0
2018-Feb-07 06:29N 53°35' E 008°32'0 0.0
2018-Feb-07 05:59N 53°35' E 008°32'0 0.0
2018-Feb-07 05:29N 53°35' E 008°32'0 0.0
2018-Feb-07 04:59N 53°35' E 008°32'0 0.0
2018-Feb-07 04:30N 53°35' E 008°32'0 0.0
2018-Feb-07 03:59N 53°35' E 008°32'0 0.0
2018-Feb-07 03:30N 53°35' E 008°32'0 0.0
2018-Feb-07 02:59N 53°35' E 008°32'0 0.0
2018-Feb-07 02:29N 53°35' E 008°32'0 0.0
2018-Feb-07 01:59N 53°35' E 008°32'0 0.0
2018-Feb-07 01:30N 53°35' E 008°32'0 0.0
2018-Feb-07 00:59N 53°35' E 008°32'0 0.0
2018-Feb-07 00:29N 53°35' E 008°32'0 0.0
2018-Feb-06 23:59N 53°35' E 008°32'0 0.0
2018-Feb-06 23:29N 53°35' E 008°32'0 0.0
2018-Feb-06 23:00N 53°35' E 008°32'0 0.0
2018-Feb-06 22:29N 53°35' E 008°32'0 0.0
2018-Feb-06 21:59N 53°35' E 008°32'0 0.0
2018-Feb-06 21:29N 53°35' E 008°32'0 0.0
2018-Feb-06 20:59N 53°35' E 008°32'0 0.0
2018-Feb-06 20:29N 53°35' E 008°32'0 0.0
2018-Feb-06 19:59N 53°35' E 008°32'0 0.0
2018-Feb-06 19:29N 53°35' E 008°32'0 0.0
2018-Feb-06 18:59N 53°35' E 008°32'0 0.0
2018-Feb-06 18:30N 53°35' E 008°32'0 0.0
2018-Feb-06 17:59N 53°35' E 008°32'0 0.0
2018-Feb-06 17:29N 53°35' E 008°32'0 0.0
2018-Feb-06 16:59N 53°35' E 008°32'0 0.0
2018-Feb-06 16:30N 53°35' E 008°32'0 0.0
2018-Feb-06 15:59N 53°35' E 008°32'0 0.0
2018-Feb-06 15:29N 53°35' E 008°32'0 0.0
2018-Feb-06 14:59N 53°35' E 008°32'0 0.0
2018-Feb-06 14:29N 53°35' E 008°32'0 0.0
2018-Feb-06 13:56N 53°35' E 008°32'0 0.0
2018-Feb-06 13:26N 53°35' E 008°32'0 0.0
2018-Feb-06 12:59N 53°35' E 008°32'0 0.0
2018-Feb-06 12:29N 53°35' E 008°32'0 0.0
2018-Feb-06 11:59N 53°35' E 008°32'0 0.0
2018-Feb-06 11:26N 53°35' E 008°32'0 0.0
2018-Feb-06 10:59N 53°35' E 008°32'0 0.0
2018-Feb-06 10:29N 53°35' E 008°32'0 0.0
2018-Feb-06 09:59N 53°35' E 008°32'0 0.0
2018-Feb-06 09:29N 53°35' E 008°32'0 0.0
2018-Feb-06 08:59N 53°35' E 008°32'0 0.0
2018-Feb-06 08:29N 53°35' E 008°32'0 0.0
2018-Feb-06 07:59N 53°35' E 008°32'0 0.0
2018-Feb-06 07:29N 53°35' E 008°32'0 0.0
2018-Feb-06 06:59N 53°35' E 008°32'0 0.0
2018-Feb-06 06:28N 53°35' E 008°32'0 0.0
2018-Feb-06 05:58N 53°35' E 008°32'0 0.0
2018-Feb-06 05:28N 53°35' E 008°32'0 0.0
2018-Feb-06 04:58N 53°35' E 008°32'13 8.7
2018-Feb-06 03:30N 53°44' E 008°16'714.8
2018-Feb-06 03:00N 53°49' E 008°07'714.3
2018-Feb-06 02:30N 53°52' E 007°55'510.7
2018-Feb-06 01:59N 53°53' E 007°46'2 4.9
2018-Feb-06 01:30N 53°53' E 007°42'6 8.4
2018-Feb-06 00:49N 53°54' E 007°33'6812.4
2018-Feb-05 19:17N 53°38' E 005°40'517.5
2018-Feb-05 19:00N 53°35' E 005°33'917.4
2018-Feb-05 18:30N 53°33' E 005°19'917.0
2018-Feb-05 18:00N 53°30' E 005°05'916.7
2018-Feb-05 17:29N 53°27' E 004°51'2816.7
2018-Feb-05 15:48N 53°04' E 004°25'3617.1
2018-Feb-05 13:41N 52°33' E 003°53'417.3
2018-Feb-05 13:28N 52°32' E 003°47'1116.3
2018-Feb-05 12:48N 52°25' E 003°34'516.8
2018-Feb-05 12:30N 52°21' E 003°27'5617.0
2018-Feb-05 09:12N 51°39' E 002°28'317.5
2018-Feb-05 09:00N 51°36' E 002°24'917.7
2018-Feb-05 08:31N 51°30' E 002°15'917.4
2018-Feb-05 08:01N 51°22' E 002°08'917.3
2018-Feb-05 07:31N 51°14' E 002°03'918.0
2018-Feb-05 07:00N 51°09' E 001°51'918.4
2018-Feb-05 06:31N 51°03' E 001°40'1918.8
2018-Feb-05 05:30N 50°47' E 001°24'2517.7
2018-Feb-05 04:06N 50°29' E 000°56'317.6
2018-Feb-05 03:55N 50°29' E 000°51'717.7
2018-Feb-05 03:29N 50°27' E 000°40'917.5
2018-Feb-05 03:00N 50°25' E 000°26'917.4
2018-Feb-05 02:30N 50°23' E 000°13'918.1
2018-Feb-05 02:00N 50°21' W 000°00'918.0
2018-Feb-05 01:30N 50°20' W 000°14'1018.9
2018-Feb-05 00:58N 50°19' W 000°30'2720.0
2018-Feb-04 23:36N 50°21' W 001°13'420.9
2018-Feb-04 23:25N 50°21' W 001°19'920.9
2018-Feb-04 23:00N 50°21' W 001°33'1020.7
2018-Feb-04 22:30N 50°22' W 001°49'1020.4
2018-Feb-04 22:00N 50°22' W 002°05'1019.9
2018-Feb-04 21:30N 50°22' W 002°20'918.9
2018-Feb-04 21:00N 50°23' W 002°35'1818.1
2018-Feb-04 20:00N 50°22' W 003°03'917.6
2018-Feb-04 19:30N 50°22' W 003°17'612.8
2018-Feb-04 19:00N 50°23' W 003°27'2 4.5
2018-Feb-04 18:30N 50°21' W 003°28'2 4.3
2018-Feb-04 18:01N 50°19' W 003°28'4 8.2
2018-Feb-04 17:31N 50°15' W 003°30'19 9.4
2018-Feb-04 15:30N 49°60' W 003°48'510.4
2018-Feb-04 15:00N 49°58' W 003°55'713.7
2018-Feb-04 14:30N 49°55' W 004°05'713.9
2018-Feb-04 14:00N 49°52' W 004°15'713.8
2018-Feb-04 13:29N 49°49' W 004°25'714.0
2018-Feb-04 13:00N 49°47' W 004°35'713.8
2018-Feb-04 12:28N 49°44' W 004°45'  
Track history (hours):
 
Tides and Currents Weather Stations Pressure Air Temp Water Temp Dewpoint Dewpoint Depression Visibility Wind Speed Wind Dir Waves Ship Positions

YM Enlightenment

Last reported at 2018-Feb-11 14:25 UTC. Time now 2018-Feb-19 21:46 UTC.
Position N 50°02' W 003°42'.
Warning: this ship's position is 8 days out of date.

Length 259 m; draft 12.2 m.

Type: Ship (hazmat cat A). MMSI: 636016703.

Date/timePositionNaut miles runAvg speedWind from/ knotsBaromVisibWave heightAir tempDewpointWater temp
2018-Feb-11 14:25N 50°02' W 003°42'715.9
2018-Feb-11 14:00N 50°06' W 003°34'918.2
2018-Feb-11 13:31N 50°15' W 003°30'917.6
2018-Feb-11 13:00N 50°23' W 003°26'4 8.1
2018-Feb-11 12:30N 50°25' W 003°21'918.2
2018-Feb-11 12:00N 50°26' W 003°06'918.4
2018-Feb-11 11:30N 50°26' W 002°52'918.8
2018-Feb-11 11:00N 50°27' W 002°37'1019.3
2018-Feb-11 10:30N 50°27' W 002°22'1719.1
2018-Feb-11 09:37N 50°28' W 001°55'218.9
2018-Feb-11 09:30N 50°28' W 001°52'1018.7
2018-Feb-11 08:58N 50°28' W 001°36'2517.9
2018-Feb-11 07:33N 50°30' W 000°56'417.4
2018-Feb-11 07:20N 50°30' W 000°50'2016.6
2018-Feb-11 06:06N 50°30' W 000°18'316.2
2018-Feb-11 05:56N 50°30' W 000°14'716.2
2018-Feb-11 05:30N 50°31' W 000°03'816.1
2018-Feb-11 05:00N 50°32' E 000°09'815.8
2018-Feb-11 04:30N 50°32' E 000°22'816.1
2018-Feb-11 04:00N 50°35' E 000°34'816.8
2018-Feb-11 03:30N 50°40' E 000°44'816.9
2018-Feb-11 03:00N 50°45' E 000°55'916.9
2018-Feb-11 02:30N 50°50' E 001°05'816.8
2018-Feb-11 02:00N 50°57' E 001°14'816.6
2018-Feb-11 01:30N 51°03' E 001°23'816.1
2018-Feb-11 01:00N 51°07' E 001°33'815.6
2018-Feb-11 00:30N 51°14' E 001°40'815.6
2018-Feb-11 00:00N 51°22' E 001°43'714.6
2018-Feb-10 23:30N 51°29' E 001°42'4 7.7
2018-Feb-10 23:00N 51°30' E 001°36'3 5.7
2018-Feb-10 22:30N 51°33' E 001°37'4 8.2
2018-Feb-10 22:00N 51°36' E 001°40'4 8.4
2018-Feb-10 21:30N 51°40' E 001°42'510.9
2018-Feb-10 21:01N 51°46' E 001°41'510.3
2018-Feb-10 20:31N 51°47' E 001°33'917.9
2018-Feb-10 20:01N 51°40' E 001°25'1016.9
2018-Feb-10 19:23N 51°34' E 001°11'616.3
2018-Feb-10 19:00N 51°30' E 001°02'814.9
2018-Feb-10 18:30N 51°29' E 000°50'13 1.9
2018-Feb-10 11:50N 51°30' E 000°30'0 0.0
2018-Feb-10 11:28N 51°30' E 000°30'0 0.0
2018-Feb-10 11:00N 51°30' E 000°30'0 0.0
2018-Feb-10 10:30N 51°30' E 000°30'0 0.0
2018-Feb-10 10:00N 51°30' E 000°30'0 0.0
2018-Feb-10 09:31N 51°30' E 000°30'0 0.0
2018-Feb-10 09:01N 51°30' E 000°30'0 0.0
2018-Feb-10 08:30N 51°30' E 000°30'0 0.0
2018-Feb-10 08:01N 51°30' E 000°30'0 0.0
2018-Feb-10 07:30N 51°30' E 000°30'0 0.0
2018-Feb-10 07:01N 51°30' E 000°30'0 0.0
2018-Feb-10 06:30N 51°30' E 000°30'0 0.0
2018-Feb-10 06:01N 51°30' E 000°30'0 0.0
2018-Feb-10 05:31N 51°30' E 000°30'0 0.0
2018-Feb-10 05:00N 51°30' E 000°30'0 0.0
2018-Feb-10 04:31N 51°30' E 000°30'0 0.0
2018-Feb-10 04:01N 51°30' E 000°30'0 0.0
2018-Feb-10 03:31N 51°30' E 000°30'0 0.2
2018-Feb-10 03:01N 51°30' E 000°30'1 1.3
2018-Feb-10 02:31N 51°30' E 000°31'4 8.1
2018-Feb-10 02:01N 51°30' E 000°38'713.0
2018-Feb-10 01:30N 51°29' E 000°48'815.5
2018-Feb-10 01:00N 51°30' E 001°01'917.4
2018-Feb-10 00:30N 51°34' E 001°13'917.8
2018-Feb-10 00:00N 51°39' E 001°24'918.0
2018-Feb-09 23:30N 51°47' E 001°33'713.9
2018-Feb-09 23:01N 51°51' E 001°42'1 4.6
2018-Feb-09 22:46N 51°51' E 001°44'1 5.1
2018-Feb-09 22:31N 51°51' E 001°46'2 4.9
2018-Feb-09 22:01N 51°49' E 001°48'4 8.4
2018-Feb-09 21:31N 51°45' E 001°49'13 8.4
2018-Feb-09 20:00N 51°33' E 001°53'4 8.5
2018-Feb-09 19:31N 51°29' E 001°56'9 9.3
2018-Feb-09 18:31N 51°23' E 002°08'4812.0
2018-Feb-09 14:30N 51°25' E 003°25'713.8
2018-Feb-09 14:00N 51°26' E 003°36'5 9.9
2018-Feb-09 13:31N 51°23' E 003°43'2110.6
2018-Feb-09 11:30N 51°21' E 004°16'0 0.0
2018-Feb-09 10:00N 51°21' E 004°16'0 0.0
2018-Feb-09 05:00N 51°21' E 004°16'0 0.0
2018-Feb-09 01:30N 51°21' E 004°16'0 0.0
2018-Feb-08 23:30N 51°21' E 004°16'0 0.0
2018-Feb-08 22:30N 51°21' E 004°16'0 0.0
2018-Feb-08 22:00N 51°21' E 004°16'0 0.0
2018-Feb-08 17:30N 51°21' E 004°16'0 0.0
2018-Feb-08 14:00N 51°21' E 004°16'0 0.0
2018-Feb-08 13:00N 51°21' E 004°16'0 0.0
2018-Feb-08 12:00N 51°21' E 004°16'2 1.4
2018-Feb-08 10:30N 51°22' E 004°13'4 7.8
2018-Feb-08 10:00N 51°22' E 004°07'611.8
2018-Feb-08 09:30N 51°26' E 004°00'3712.4
2018-Feb-08 06:30N 51°25' E 003°00'11414.6
2018-Feb-07 22:43N 53°09' E 004°19'414.9
2018-Feb-07 22:28N 53°11' E 004°23'1417.0
2018-Feb-07 21:40N 53°23' E 004°34'315.3
2018-Feb-07 21:27N 53°26' E 004°37'14011.7
2018-Feb-07 09:29N 53°35' E 008°32'0 0.0
2018-Feb-07 08:59N 53°35' E 008°32'0 0.0
2018-Feb-07 08:29N 53°35' E 008°32'0 0.0
2018-Feb-07 07:59N 53°35' E 008°32'0 0.0
2018-Feb-07 07:29N 53°35' E 008°32'0 0.0
2018-Feb-07 07:00N 53°35' E 008°32'0 0.0
2018-Feb-07 06:29N 53°35' E 008°32'0 0.0
2018-Feb-07 05:59N 53°35' E 008°32'0 0.0
2018-Feb-07 05:29N 53°35' E 008°32'0 0.0
2018-Feb-07 04:59N 53°35' E 008°32'0 0.0
2018-Feb-07 04:30N 53°35' E 008°32'0 0.0
2018-Feb-07 03:59N 53°35' E 008°32'0 0.0
2018-Feb-07 03:30N 53°35' E 008°32'0 0.0
2018-Feb-07 02:59N 53°35' E 008°32'0 0.0
2018-Feb-07 02:29N 53°35' E 008°32'0 0.0
2018-Feb-07 01:59N 53°35' E 008°32'0 0.0
2018-Feb-07 01:30N 53°35' E 008°32'0 0.0
2018-Feb-07 00:59N 53°35' E 008°32'0 0.0
2018-Feb-07 00:29N 53°35' E 008°32'0 0.0
2018-Feb-06 23:59N 53°35' E 008°32'0 0.0
2018-Feb-06 23:29N 53°35' E 008°32'0 0.0
2018-Feb-06 23:00N 53°35' E 008°32'0 0.0
2018-Feb-06 22:29N 53°35' E 008°32'0 0.0
2018-Feb-06 21:59N 53°35' E 008°32'0 0.0
2018-Feb-06 21:29N 53°35' E 008°32'0 0.0
2018-Feb-06 20:59N 53°35' E 008°32'0 0.0
2018-Feb-06 20:29N 53°35' E 008°32'0 0.0
2018-Feb-06 19:59N 53°35' E 008°32'0 0.0
2018-Feb-06 19:29N 53°35' E 008°32'0 0.0
2018-Feb-06 18:59N 53°35' E 008°32'0 0.0
2018-Feb-06 18:30N 53°35' E 008°32'0 0.0
2018-Feb-06 17:59N 53°35' E 008°32'0 0.0
2018-Feb-06 17:29N 53°35' E 008°32'0 0.0
2018-Feb-06 16:59N 53°35' E 008°32'0 0.0
2018-Feb-06 16:30N 53°35' E 008°32'0 0.0
2018-Feb-06 15:59N 53°35' E 008°32'0 0.0
2018-Feb-06 15:29N 53°35' E 008°32'0 0.0
2018-Feb-06 14:59N 53°35' E 008°32'0 0.0
2018-Feb-06 14:29N 53°35' E 008°32'0 0.0
2018-Feb-06 13:56N 53°35' E 008°32'0 0.0
2018-Feb-06 13:26N 53°35' E 008°32'0 0.0
2018-Feb-06 12:59N 53°35' E 008°32'0 0.0
2018-Feb-06 12:29N 53°35' E 008°32'0 0.0
2018-Feb-06 11:59N 53°35' E 008°32'0 0.0
2018-Feb-06 11:26N 53°35' E 008°32'0 0.0
2018-Feb-06 10:59N 53°35' E 008°32'0 0.0
2018-Feb-06 10:29N 53°35' E 008°32'0 0.0
2018-Feb-06 09:59N 53°35' E 008°32'0 0.0
2018-Feb-06 09:29N 53°35' E 008°32'0 0.0
2018-Feb-06 08:59N 53°35' E 008°32'0 0.0
2018-Feb-06 08:29N 53°35' E 008°32'0 0.0
2018-Feb-06 07:59N 53°35' E 008°32'0 0.0
2018-Feb-06 07:29N 53°35' E 008°32'0 0.0
2018-Feb-06 06:59N 53°35' E 008°32'0 0.0
2018-Feb-06 06:28N 53°35' E 008°32'0 0.0
2018-Feb-06 05:58N 53°35' E 008°32'0 0.0
2018-Feb-06 05:28N 53°35' E 008°32'0 0.0
2018-Feb-06 04:58N 53°35' E 008°32'13 8.7
2018-Feb-06 03:30N 53°44' E 008°16'714.8
2018-Feb-06 03:00N 53°49' E 008°07'714.3
2018-Feb-06 02:30N 53°52' E 007°55'510.7
2018-Feb-06 01:59N 53°53' E 007°46'2 4.9
2018-Feb-06 01:30N 53°53' E 007°42'6 8.4
2018-Feb-06 00:49N 53°54' E 007°33'6812.4
2018-Feb-05 19:17N 53°38' E 005°40'517.5
2018-Feb-05 19:00N 53°35' E 005°33'917.4
2018-Feb-05 18:30N 53°33' E 005°19'917.0
2018-Feb-05 18:00N 53°30' E 005°05'916.7
2018-Feb-05 17:29N 53°27' E 004°51'2816.7
2018-Feb-05 15:48N 53°04' E 004°25'3617.1
2018-Feb-05 13:41N 52°33' E 003°53'417.3
2018-Feb-05 13:28N 52°32' E 003°47'1116.3
2018-Feb-05 12:48N 52°25' E 003°34'516.8
2018-Feb-05 12:30N 52°21' E 003°27'5617.0
2018-Feb-05 09:12N 51°39' E 002°28'317.5
2018-Feb-05 09:00N 51°36' E 002°24'917.7
2018-Feb-05 08:31N 51°30' E 002°15'917.4
2018-Feb-05 08:01N 51°22' E 002°08'917.3
2018-Feb-05 07:31N 51°14' E 002°03'918.0
2018-Feb-05 07:00N 51°09' E 001°51'918.4
2018-Feb-05 06:31N 51°03' E 001°40'1918.8
2018-Feb-05 05:30N 50°47' E 001°24'2517.7
2018-Feb-05 04:06N 50°29' E 000°56'317.6
2018-Feb-05 03:55N 50°29' E 000°51'717.7
2018-Feb-05 03:29N 50°27' E 000°40'917.5
2018-Feb-05 03:00N 50°25' E 000°26'917.4
2018-Feb-05 02:30N 50°23' E 000°13'918.1
2018-Feb-05 02:00N 50°21' W 000°00'918.0
2018-Feb-05 01:30N 50°20' W 000°14'1018.9
2018-Feb-05 00:58N 50°19' W 000°30'2720.0
2018-Feb-04 23:36N 50°21' W 001°13'420.9
2018-Feb-04 23:25N 50°21' W 001°19'920.9
2018-Feb-04 23:00N 50°21' W 001°33'1020.7
2018-Feb-04 22:30N 50°22' W 001°49'1020.4
2018-Feb-04 22:00N 50°22' W 002°05'1019.9
2018-Feb-04 21:30N 50°22' W 002°20'918.9
2018-Feb-04 21:00N 50°23' W 002°35'1818.1
2018-Feb-04 20:00N 50°22' W 003°03'917.6
2018-Feb-04 19:30N 50°22' W 003°17'612.8
2018-Feb-04 19:00N 50°23' W 003°27'2 4.5
2018-Feb-04 18:30N 50°21' W 003°28'2 4.3
2018-Feb-04 18:01N 50°19' W 003°28'4 8.2
2018-Feb-04 17:31N 50°15' W 003°30'19 9.4
2018-Feb-04 15:30N 49°60' W 003°48'510.4
2018-Feb-04 15:00N 49°58' W 003°55'713.7
2018-Feb-04 14:30N 49°55' W 004°05'713.9
2018-Feb-04 14:00N 49°52' W 004°15'713.8
2018-Feb-04 13:29N 49°49' W 004°25'714.0
2018-Feb-04 13:00N 49°47' W 004°35'713.8
2018-Feb-04 12:28N 49°44' W 004°45'  

Dump ship's entire track history